Date,TemperatureHighF,TemperatureAvgF,TemperatureLowF,DewpointHighF,DewpointAvgF,DewpointLowF,HumidityHigh,HumidityAvg,HumidityLow,PressureMaxIn,PressureMinIn,WindSpeedMaxMPH,WindSpeedAvgMPH,GustSpeedMaxMPH,PrecipitationSumIn
2013-1-1,37.8,31.2,22.7,35.7,29.2,19.8,93,92,89,30.43,30.19,5,2,11,0.00
2013-1-2,33.7,24.7,15.3,26.3,20.5,12.9,99,85,62,30.47,30.37,5,1,7,0.00
2013-1-3,41.5,30.4,19.7,32.2,24.3,17.2,91,79,54,30.63,30.45,6,1,10,0.01
2013-1-4,47.8,33.2,20.9,29.5,24.1,18.4,92,72,40,30.64,30.49,7,2,11,0.00
2013-1-5,43.6,37.0,29.2,34.9,30.0,22.7,92,76,69,30.49,30.32,13,4,22,0.00
2013-1-6,44.0,33.2,25.1,31.8,25.0,19.9,91,73,47,30.55,30.39,5,1,13,0.00
2013-1-7,51.4,38.2,25.6,31.3,26.4,20.7,82,64,43,30.51,30.27,13,4,18,0.00
2013-1-8,55.7,43.7,32.3,45.7,35.2,25.0,91,73,54,30.34,30.19,14,4,18,0.21
2013-1-9,54.6,50.6,47.0,47.4,43.3,37.8,92,77,56,30.47,30.32,15,5,27,0.05
2013-1-10,57.9,51.6,47.8,53.5,47.1,39.1,89,85,61,30.33,29.91,13,6,24,0.18
2013-1-11,65.6,55.6,45.6,48.4,45.7,42.5,92,71,50,30.00,29.82,17,10,26,0.00
2013-1-12,58.7,41.7,27.1,50.6,34.8,24.6,90,78,47,30.13,29.91,11,4,21,0.59
2013-1-13,27.1,22.1,14.8,24.6,18.8,12.1,90,87,83,30.56,30.12,0,0,0,0.00
2013-1-14,31.6,22.2,13.3,22.6,17.2,10.7,89,81,65,30.68,30.52,1,0,5,0.01
2013-1-15,33.2,24.6,17.8,23.6,18.4,14.8,89,78,49,30.52,30.35,3,0,8,0.00
2013-1-16,42.5,28.7,16.3,23.8,19.5,13.4,89,71,41,30.39,30.28,5,1,9,0.03
2013-1-17,48.0,36.2,27.2,33.9,26.5,20.1,85,69,45,30.65,30.38,8,1,17,0.00
2013-1-18,55.1,39.2,29.2,34.2,28.8,24.1,84,69,40,30.67,30.42,16,5,23,0.00
2013-1-19,62.5,48.5,38.8,40.1,34.8,29.7,77,60,41,30.34,30.20,14,6,19,0.00
2013-1-20,61.3,44.7,28.9,36.9,29.8,19.3,76,57,38,30.43,30.25,8,2,17,0.00
2013-1-21,38.3,28.7,22.1,19.3,16.1,12.6,75,60,42,30.56,30.42,6,1,12,0.00
2013-1-22,47.0,32.7,21.2,28.4,21.8,14.8,77,65,47,30.50,30.36,8,1,13,0.00
2013-1-23,61.8,43.5,30.4,44.5,34.6,23.4,84,72,51,30.42,30.28,7,2,15,0.00
2013-1-24,43.0,38.5,35.8,33.8,24.2,19.0,88,57,46,30.45,30.24,10,4,18,0.00
2013-1-25,46.9,38.3,33.3,33.8,31.5,28.6,91,77,57,30.42,30.25,4,1,13,0.00
2013-1-26,60.1,46.5,33.4,30.3,27.0,22.3,82,49,27,30.42,30.25,8,2,14,0.00
2013-1-27,59.8,53.9,45.6,55.6,48.7,30.4,88,83,51,30.25,30.01,17,11,27,0.01
2013-1-28,72.3,67.0,59.8,63.3,60.9,55.6,86,81,69,30.06,29.88,18,13,27,0.00
2013-1-29,69.4,59.7,44.3,63.4,55.3,41.8,91,86,71,29.88,29.55,16,8,27,2.11
2013-1-30,44.8,33.0,22.6,42.3,28.5,19.0,92,83,73,30.22,29.65,14,6,28,0.01
2013-1-31,45.0,28.8,18.8,30.8,21.6,11.0,88,75,52,30.63,30.18,11,3,20,0.00